createdAt,value
2023-04-22T00:09:56.844Z,5.1
2023-04-22T00:22:33.357Z,4.8
2023-04-22T00:28:59.150Z,4.8
2023-04-22T00:40:59.876Z,4.9
2023-04-22T00:47:07.940Z,5.6
2023-04-22T00:59:55.217Z,4.6
2023-04-22T01:25:01.912Z,4.2
2023-04-22T01:31:00.722Z,4.5
2023-04-22T01:43:26.102Z,4.2
2023-04-22T01:49:17.953Z,4.5
2023-04-22T01:55:12.976Z,4.6
2023-04-22T02:01:14.674Z,4.2
2023-04-22T02:07:11.308Z,4
2023-04-22T02:13:17.033Z,4
2023-04-22T02:19:12.316Z,4.5
2023-04-22T02:25:05.510Z,4.5
2023-04-22T02:31:05.367Z,4.3
2023-04-22T02:36:59.881Z,4.6
2023-04-22T02:42:53.410Z,4.6
2023-04-22T02:48:45.318Z,4
2023-04-22T02:54:41.323Z,4.2
2023-04-22T03:00:38.706Z,4
2023-04-22T03:06:36.992Z,4.9
2023-04-22T03:12:39.930Z,5
2023-04-22T03:18:39.135Z,5.2
2023-04-22T03:24:41.262Z,5.6
2023-04-22T03:30:41.527Z,4.8
2023-04-22T03:36:44.637Z,4.7
2023-04-22T03:42:39.223Z,4.5
2023-04-22T03:48:50.666Z,4.5
2023-04-22T04:00:55.433Z,4.7
2023-04-22T04:06:48.639Z,4.7
2023-04-22T04:12:41.692Z,4.5
2023-04-22T04:18:33.384Z,4.4
2023-04-22T04:24:24.608Z,4.4
2023-04-22T04:30:20.745Z,4.4
2023-04-22T04:36:17.916Z,4.3
2023-04-22T04:42:28.201Z,4.5
2023-04-22T04:48:17.941Z,3.8
2023-04-22T04:54:09.824Z,4.3
2023-04-22T05:00:03.500Z,4.7
2023-04-22T05:05:57.738Z,4.1
2023-04-22T05:11:53.625Z,4.3
2023-04-22T05:17:45.996Z,4.4
2023-04-22T05:23:36.310Z,3.7
2023-04-22T05:29:27.491Z,4.3
2023-04-22T05:35:18.620Z,4.1
2023-04-22T05:41:11.575Z,4.1
2023-04-22T05:47:06.708Z,4.3
2023-04-22T05:52:58.885Z,3.9
2023-04-22T05:58:49.975Z,3.7
2023-04-22T06:04:51.115Z,4
2023-04-22T06:10:53.434Z,4.2
2023-04-22T06:17:16.033Z,4.1
2023-04-22T06:23:48.485Z,4.8
2023-04-22T06:30:06.771Z,4.8
2023-04-22T06:36:06.824Z,4.4
2023-04-22T06:42:27.684Z,3.9
2023-04-22T06:48:35.685Z,3.8
2023-04-22T06:54:48.798Z,3.4
2023-04-22T07:01:19.135Z,3.2
2023-04-22T07:07:23.963Z,3.3
2023-04-22T07:13:51.774Z,3.7
2023-04-22T07:20:03.913Z,3.5
2023-04-22T07:26:14.563Z,3.5
2023-04-22T07:32:12.481Z,3.6
2023-04-22T07:38:24.355Z,3.8
2023-04-22T07:44:45.453Z,3.6
2023-04-22T07:50:59.290Z,3.3
2023-04-22T07:57:07.841Z,3.5
2023-04-22T08:03:26.055Z,3.4
2023-04-22T08:09:58.266Z,3.1
2023-04-22T08:16:04.454Z,3
2023-04-22T08:21:57.810Z,2.8
2023-04-22T08:27:50.314Z,3
2023-04-22T08:33:45.076Z,3
2023-04-22T08:39:43.436Z,3
2023-04-22T08:45:43.075Z,2.5
2023-04-22T08:51:56.161Z,2.9
2023-04-22T08:57:50.526Z,2.4
2023-04-22T09:03:47.211Z,2.6
2023-04-22T09:09:41.797Z,2.9
2023-04-22T09:15:38.543Z,2.3
2023-04-22T09:21:27.911Z,2.5
2023-04-22T09:27:20.123Z,2.8
2023-04-22T09:33:12.435Z,2.7
2023-04-22T09:39:04.204Z,2.5
2023-04-22T09:44:56.579Z,2.6
2023-04-22T09:50:49.387Z,2.4
2023-04-22T09:56:41.485Z,2.5
2023-04-22T10:02:34.509Z,2.4
2023-04-22T10:08:27.238Z,2.3
2023-04-22T10:14:20.218Z,2.3
2023-04-22T10:20:12.393Z,2.4
2023-04-22T10:26:04.483Z,2.3
2023-04-22T10:31:57.334Z,2.4
2023-04-22T10:37:50.086Z,2.2
2023-04-22T10:43:41.825Z,2.9
2023-04-22T10:49:34.285Z,2.4
2023-04-22T10:55:26.047Z,2.3
2023-04-22T11:01:18.214Z,2.5
2023-04-22T11:07:09.952Z,2.3
2023-04-22T11:13:01.732Z,2.7
2023-04-22T11:18:54.003Z,2.5
2023-04-22T11:24:45.725Z,2.2
2023-04-22T11:30:37.626Z,2.9
2023-04-22T11:36:29.549Z,2.6
2023-04-22T11:42:21.799Z,2.6
2023-04-22T11:48:14.018Z,2.6
2023-04-22T11:54:07.192Z,3.5
2023-04-22T11:59:59.407Z,2.5
2023-04-22T12:05:51.253Z,2.7
2023-04-22T12:11:43.218Z,2.8
2023-04-22T12:17:35.199Z,2.7
2023-04-22T12:23:26.874Z,3
2023-04-22T12:29:18.811Z,2.7
2023-04-22T12:35:12.795Z,2.7
2023-04-22T12:41:03.591Z,2.7
2023-04-22T12:46:56.372Z,2.7
2023-04-22T12:52:47.930Z,2.4
2023-04-22T12:58:40.079Z,2.3
2023-04-22T13:04:32.158Z,2.5
2023-04-22T13:10:24.837Z,2.5
2023-04-22T13:16:16.819Z,2.3
2023-04-22T13:22:11.275Z,2.1
2023-04-22T13:28:04.125Z,3.1
2023-04-22T13:33:56.363Z,2.2
2023-04-22T13:39:48.849Z,2.5
2023-04-22T13:45:41.243Z,2.1
2023-04-22T13:51:33.032Z,2.2
2023-04-22T13:57:25.180Z,2.2
2023-04-22T14:03:18.164Z,2.3
2023-04-22T14:09:10.127Z,2.1
2023-04-22T14:15:02.434Z,2.3
2023-04-22T14:20:54.049Z,2.4
2023-04-22T14:26:46.281Z,2.2
2023-04-22T14:32:38.789Z,2.3
2023-04-22T14:38:31.290Z,2
2023-04-22T14:44:23.414Z,2
2023-04-22T14:50:15.390Z,2.9
2023-04-22T14:56:06.563Z,1.9
2023-04-22T15:01:59.677Z,1.8
2023-04-22T15:07:51.748Z,2
2023-04-22T15:13:44.411Z,2.1
2023-04-22T15:19:45.540Z,1.8
2023-04-22T15:25:50.608Z,1.9
2023-04-22T15:31:44.698Z,1.6
2023-04-22T15:37:37.158Z,1.6
2023-04-22T15:43:30.840Z,1.6
2023-04-22T15:49:24.881Z,1.5
2023-04-22T15:55:19.043Z,1.9
2023-04-22T16:01:27.134Z,1.5
2023-04-22T16:07:19.414Z,1.8
2023-04-22T16:13:12.000Z,4.8
2023-04-22T16:19:07.496Z,2
2023-04-22T16:25:02.888Z,2.7
2023-04-22T16:30:58.858Z,3.6
2023-04-22T16:37:01.602Z,3.2
2023-04-22T16:42:54.263Z,5.4
2023-04-22T16:48:46.512Z,2.6
2023-04-22T16:54:38.471Z,4.5
2023-04-22T17:00:32.185Z,3.9
2023-04-22T17:06:24.828Z,3.1
2023-04-22T17:12:21.172Z,3.5
2023-04-22T17:18:33.265Z,2.4
2023-04-22T17:24:27.458Z,1.9
2023-04-22T17:30:34.411Z,2.3
2023-04-22T17:36:47.015Z,1.3
2023-04-22T17:43:03.067Z,1.9
2023-04-22T17:49:00.311Z,2.1
2023-04-22T17:55:09.974Z,1.6
2023-04-22T18:01:46.327Z,2
2023-04-22T18:07:38.282Z,1.8
2023-04-22T18:13:35.220Z,1.7
2023-04-22T18:19:34.659Z,2.3
2023-04-22T18:25:28.613Z,1.8
2023-04-22T18:31:22.951Z,1.7
2023-04-22T18:37:44.820Z,1.8
2023-04-22T18:43:56.202Z,2.2
2023-04-22T18:50:14.574Z,1.9
2023-04-22T18:56:13.215Z,1.8
2023-04-22T19:02:10.405Z,3.2
2023-04-22T19:08:04.556Z,2.1
2023-04-22T19:14:12.360Z,2.6
2023-04-22T19:20:16.937Z,2.8
2023-04-22T19:26:30.512Z,2.4
2023-04-22T19:32:35.428Z,2.4
2023-04-22T19:45:01.111Z,2.7
2023-04-22T19:51:33.704Z,2.6
2023-04-22T19:57:42.032Z,3.3
2023-04-22T20:04:59.809Z,2.8
2023-04-22T20:17:03.654Z,4.4
2023-04-22T20:23:08.830Z,4.4
2023-04-22T20:29:02.173Z,3.8
2023-04-22T20:35:02.693Z,3
2023-04-22T20:53:24.822Z,3.9
2023-04-22T21:05:45.284Z,7
2023-04-22T21:24:30.413Z,3.6
2023-04-22T21:30:49.387Z,4.2
2023-04-22T21:36:41.791Z,3.9
2023-04-22T21:42:52.516Z,4.2
2023-04-22T21:48:46.393Z,5.2
2023-04-22T21:54:41.284Z,5.9
2023-04-22T22:00:41.749Z,6.2
2023-04-22T22:06:39.251Z,6.4
2023-04-22T22:12:35.903Z,6.7
2023-04-22T22:18:32.672Z,7.2
2023-04-22T22:24:30.536Z,7
2023-04-22T22:30:23.499Z,7
2023-04-22T22:36:20.159Z,7.1
2023-04-22T22:42:38.168Z,8.2
2023-04-22T22:48:34.210Z,8.4
2023-04-22T22:54:28.411Z,11.7
2023-04-22T23:00:23.969Z,19.2
2023-04-22T23:06:20.259Z,19.3
2023-04-22T23:12:29.916Z,21.3
2023-04-22T23:18:30.238Z,25.1
2023-04-22T23:24:24.836Z,26.4
2023-04-22T23:30:39.744Z,28.1
2023-04-22T23:36:33.500Z,28
2023-04-22T23:42:27.706Z,29.5
2023-04-22T23:48:44.063Z,28.3
2023-04-22T23:55:06.446Z,28.8
